createdAt,value
2018-01-10T00:01:10.036Z,82.20
2018-01-10T00:03:37.587Z,82.20
2018-01-10T00:06:05.915Z,81.90
2018-01-10T00:08:34.251Z,82.60
2018-01-10T00:11:01.816Z,82.60
2018-01-10T00:13:29.398Z,82.80
2018-01-10T00:15:56.974Z,82.60
2018-01-10T00:18:24.553Z,83.00
2018-01-10T00:20:52.220Z,83.10
2018-01-10T00:23:19.826Z,83.20
2018-01-10T00:25:47.384Z,83.70
2018-01-10T00:28:15.004Z,84.30
2018-01-10T00:30:43.337Z,84.50
2018-01-10T00:33:10.895Z,84.00
2018-01-10T00:35:38.486Z,83.70
2018-01-10T00:38:06.126Z,84.00
2018-01-10T00:40:33.884Z,84.10
2018-01-10T00:43:01.445Z,84.50
2018-01-10T00:45:29.017Z,84.80
2018-01-10T00:47:56.633Z,85.10
2018-01-10T00:50:24.955Z,85.50
2018-01-10T00:53:02.433Z,85.40
2018-01-10T00:55:30.044Z,85.50
2018-01-10T00:57:57.613Z,85.30
2018-01-10T01:00:25.220Z,84.90
2018-01-10T01:02:52.794Z,84.60
2018-01-10T01:05:20.345Z,84.90
2018-01-10T01:07:47.901Z,85.00
2018-01-10T01:10:15.481Z,85.30
2018-01-10T01:12:43.065Z,85.20
2018-01-10T01:15:10.628Z,86.00
2018-01-10T01:17:39.027Z,86.10
2018-01-10T01:20:06.579Z,86.10
2018-01-10T01:22:44.086Z,86.20
2018-01-10T01:25:11.806Z,87.20
2018-01-10T01:27:39.363Z,86.10
2018-01-10T01:30:06.917Z,85.80
2018-01-10T01:32:34.481Z,85.50
2018-01-10T01:35:02.057Z,86.00
2018-01-10T01:37:29.618Z,86.10
2018-01-10T01:39:57.201Z,86.30
2018-01-10T01:42:24.841Z,86.70
2018-01-10T01:44:52.405Z,86.70
2018-01-10T01:47:19.943Z,86.90
2018-01-10T01:49:47.571Z,86.90
2018-01-10T01:52:15.151Z,86.80
2018-01-10T01:54:43.720Z,86.60
2018-01-10T01:57:11.354Z,86.50
2018-01-10T01:59:38.912Z,86.20
2018-01-10T02:02:06.497Z,86.10
2018-01-10T02:04:34.056Z,86.10
2018-01-10T02:07:01.684Z,86.50
2018-01-10T02:09:29.301Z,86.50
2018-01-10T02:11:56.894Z,86.20
2018-01-10T02:14:25.340Z,85.80
2018-01-10T02:16:52.890Z,85.80
2018-01-10T02:19:20.462Z,85.40
2018-01-10T02:21:48.041Z,85.20
2018-01-10T02:24:15.602Z,85.00
2018-01-10T02:26:43.922Z,84.60
2018-01-10T02:29:11.556Z,84.60
2018-01-10T02:31:39.123Z,84.40
2018-01-10T02:34:07.487Z,84.00
2018-01-10T02:36:35.796Z,84.00
2018-01-10T02:39:03.383Z,83.90
2018-01-10T02:41:31.004Z,83.60
2018-01-10T02:43:59.344Z,83.80
2018-01-10T02:46:26.930Z,83.80
2018-01-10T02:48:55.274Z,83.80
2018-01-10T02:51:22.839Z,83.50
2018-01-10T02:53:50.396Z,83.90
2018-01-10T02:56:17.980Z,83.90
2018-01-10T02:58:45.626Z,83.90
2018-01-10T03:01:13.206Z,84.30
2018-01-10T03:03:40.778Z,84.40
2018-01-10T03:06:08.372Z,84.30
2018-01-10T03:08:35.961Z,84.40
2018-01-10T03:11:03.539Z,84.40
2018-01-10T03:13:31.113Z,84.30
2018-01-10T03:15:58.676Z,84.00
2018-01-10T03:18:26.242Z,83.90
2018-01-10T03:20:53.912Z,83.60
2018-01-10T03:23:22.233Z,83.60
2018-01-10T03:25:49.793Z,83.50
2018-01-10T03:28:17.353Z,83.50
2018-01-10T03:30:44.945Z,83.20
2018-01-10T03:33:12.522Z,83.10
2018-01-10T03:35:40.073Z,83.20
2018-01-10T03:38:07.627Z,83.00
2018-01-10T03:40:35.218Z,83.10
2018-01-10T03:43:02.782Z,82.70
2018-01-10T03:45:30.344Z,83.10
2018-01-10T03:47:57.901Z,82.90
2018-01-10T03:50:26.274Z,83.00
2018-01-10T03:52:54.789Z,83.70
2018-01-10T03:55:23.134Z,83.20
2018-01-10T03:57:58.849Z,83.20
2018-01-10T04:00:26.410Z,83.10
2018-01-10T04:02:53.984Z,83.10
2018-01-10T04:05:21.546Z,83.30
2018-01-10T04:07:50.009Z,83.10
2018-01-10T04:10:17.571Z,83.10
2018-01-10T04:12:45.128Z,83.00
2018-01-10T04:15:12.677Z,83.00
2018-01-10T04:17:41.034Z,83.30
2018-01-10T04:20:08.622Z,83.30
2018-01-10T04:22:36.970Z,83.70
2018-01-10T04:25:04.524Z,83.70
2018-01-10T04:27:32.077Z,83.90
2018-01-10T04:29:59.636Z,83.90
2018-01-10T04:32:27.203Z,83.80
2018-01-10T04:34:54.895Z,83.60
2018-01-10T04:37:22.468Z,83.80
2018-01-10T04:39:50.790Z,83.50
2018-01-10T04:42:18.340Z,83.40
2018-01-10T04:44:45.931Z,83.50
2018-01-10T04:47:13.481Z,83.50
2018-01-10T04:49:41.066Z,83.60
2018-01-10T04:52:08.630Z,83.50
2018-01-10T04:54:36.209Z,83.30
2018-01-10T04:57:04.534Z,83.80
2018-01-10T04:59:32.084Z,83.70
2018-01-10T05:01:59.653Z,83.80
2018-01-10T05:04:27.224Z,83.80
2018-01-10T05:06:54.790Z,83.60
2018-01-10T05:09:22.350Z,83.50
2018-01-10T05:11:49.928Z,83.50
2018-01-10T05:14:17.503Z,83.30
2018-01-10T05:16:45.114Z,83.30
2018-01-10T05:19:12.649Z,83.00
2018-01-10T05:21:41.096Z,83.20
2018-01-10T05:24:08.641Z,82.70
2018-01-10T05:26:36.240Z,82.70
2018-01-10T05:29:03.798Z,82.50
2018-01-10T05:31:31.381Z,82.90
2018-01-10T05:33:59.718Z,83.20
2018-01-10T05:36:27.285Z,82.40
2018-01-10T05:38:54.838Z,82.60
2018-01-10T05:41:22.405Z,82.60
2018-01-10T05:43:49.961Z,82.70
2018-01-10T05:46:17.510Z,82.70
2018-01-10T05:48:45.088Z,82.60
2018-01-10T05:51:12.747Z,82.40
2018-01-10T05:53:40.309Z,82.50
2018-01-10T05:56:07.902Z,82.20
2018-01-10T05:58:35.465Z,82.20
2018-01-10T06:01:03.038Z,82.40
2018-01-10T06:03:31.400Z,82.10
2018-01-10T06:05:58.989Z,82.10
2018-01-10T06:08:26.528Z,82.30
2018-01-10T06:10:54.077Z,82.00
2018-01-10T06:13:21.660Z,82.50
2018-01-10T06:15:49.227Z,82.60
2018-01-10T06:18:16.791Z,83.20
2018-01-10T06:20:44.346Z,84.30
2018-01-10T06:23:11.922Z,83.60
2018-01-10T06:25:40.347Z,83.50
2018-01-10T06:28:07.930Z,83.50
2018-01-10T06:30:35.520Z,83.50
2018-01-10T06:33:03.062Z,83.50
2018-01-10T06:35:30.914Z,83.60
2018-01-10T06:37:58.564Z,83.70
2018-01-10T06:40:26.120Z,83.50
2018-01-10T06:42:53.693Z,82.90
2018-01-10T06:45:21.250Z,83.10
2018-01-10T06:47:48.820Z,83.10
2018-01-10T06:50:17.394Z,83.60
2018-01-10T06:52:45.050Z,83.60
2018-01-10T06:55:12.626Z,84.70
2018-01-10T06:57:40.182Z,83.70
2018-01-10T07:00:07.733Z,83.60
2018-01-10T07:02:35.309Z,83.80
2018-01-10T07:05:02.910Z,83.80
2018-01-10T07:07:30.480Z,84.60
2018-01-10T07:09:58.793Z,83.20
2018-01-10T07:12:26.362Z,83.20
2018-01-10T07:14:53.918Z,83.80
2018-01-10T07:17:21.490Z,84.00
2018-01-10T07:19:49.039Z,84.30
2018-01-10T07:22:16.605Z,84.60
2018-01-10T07:24:44.233Z,84.70
2018-01-10T07:27:12.550Z,85.70
2018-01-10T07:29:41.149Z,84.70
2018-01-10T07:32:08.709Z,84.60
2018-01-10T07:34:36.284Z,84.70
2018-01-10T07:37:03.874Z,84.60
2018-01-10T07:39:31.428Z,85.00
2018-01-10T07:41:59.009Z,84.80
2018-01-10T07:44:26.649Z,84.70
2018-01-10T07:46:54.205Z,85.50
2018-01-10T07:49:21.795Z,84.50
2018-01-10T07:51:49.414Z,84.50
2018-01-10T07:54:16.980Z,84.60
2018-01-10T07:56:44.546Z,84.70
2018-01-10T07:59:12.101Z,84.70
2018-01-10T08:01:39.688Z,84.80
2018-01-10T08:04:07.615Z,84.60
2018-01-10T08:06:35.162Z,85.10
2018-01-10T08:09:02.746Z,85.40
2018-01-10T08:11:30.443Z,85.10
2018-01-10T08:13:58.079Z,85.00
2018-01-10T08:16:25.651Z,85.10
2018-01-10T08:18:53.221Z,85.40
2018-01-10T08:21:20.770Z,85.20
2018-01-10T08:23:48.327Z,85.20
2018-01-10T08:26:15.906Z,85.40
2018-01-10T08:28:43.456Z,85.60
2018-01-10T08:31:11.042Z,85.50
2018-01-10T08:33:38.581Z,85.30
2018-01-10T08:36:06.169Z,85.40
2018-01-10T08:38:33.729Z,85.40
2018-01-10T08:41:01.357Z,85.40
2018-01-10T08:43:28.942Z,85.30
2018-01-10T08:45:56.494Z,85.40
2018-01-10T08:48:24.044Z,84.80
2018-01-10T08:50:51.610Z,84.20
2018-01-10T08:53:19.187Z,84.20
2018-01-10T08:55:46.757Z,83.80
2018-01-10T08:58:14.329Z,83.40
2018-01-10T09:00:42.655Z,82.50
2018-01-10T09:03:10.219Z,82.50
2018-01-10T09:05:37.803Z,82.40
2018-01-10T09:08:05.350Z,82.40
2018-01-10T09:10:32.996Z,82.00
2018-01-10T09:13:00.570Z,81.60
2018-01-10T09:15:28.153Z,81.40
2018-01-10T09:17:55.760Z,81.20
2018-01-10T09:20:23.310Z,81.20
2018-01-10T09:22:51.690Z,81.00
2018-01-10T09:25:19.258Z,80.40
2018-01-10T09:27:46.823Z,79.80
2018-01-10T09:30:15.340Z,79.20
2018-01-10T09:32:43.740Z,79.00
2018-01-10T09:35:11.354Z,79.00
2018-01-10T09:37:38.928Z,79.30
2018-01-10T09:40:07.465Z,79.00
2018-01-10T09:42:35.027Z,79.00
2018-01-10T09:45:02.670Z,78.90
2018-01-10T09:47:30.225Z,78.30
2018-01-10T09:49:57.801Z,77.30
2018-01-10T09:52:25.909Z,77.40
2018-01-10T09:54:53.466Z,76.90
2018-01-10T09:57:21.030Z,74.70
2018-01-10T09:59:49.131Z,73.30
2018-01-10T10:02:16.705Z,73.30
2018-01-10T10:04:45.048Z,72.60
2018-01-10T10:07:12.606Z,72.60
2018-01-10T10:09:40.311Z,72.50
2018-01-10T10:12:08.660Z,72.90
2018-01-10T10:14:36.233Z,72.90
2018-01-10T10:17:03.948Z,71.90
2018-01-10T10:19:31.526Z,71.50
2018-01-10T10:21:59.101Z,71.20
2018-01-10T10:24:26.653Z,71.50
2018-01-10T10:26:54.228Z,69.00
2018-01-10T10:29:21.802Z,69.10
2018-01-10T10:31:49.401Z,68.50
2018-01-10T10:34:17.734Z,68.40
2018-01-10T10:36:45.313Z,68.40
2018-01-10T10:39:13.017Z,68.00
2018-01-10T10:41:40.578Z,68.70
2018-01-10T10:44:08.150Z,67.40
2018-01-10T10:46:35.735Z,67.70
2018-01-10T10:49:03.286Z,67.70
2018-01-10T10:51:31.786Z,67.70
2018-01-10T10:53:59.336Z,67.70
2018-01-10T10:56:26.914Z,67.80
2018-01-10T10:58:54.486Z,68.20
2018-01-10T11:01:22.049Z,67.90
2018-01-10T11:03:50.619Z,67.60
2018-01-10T11:06:18.249Z,68.30
2018-01-10T11:08:45.835Z,68.00
2018-01-10T11:11:13.478Z,68.40
2018-01-10T11:13:41.021Z,68.20
2018-01-10T11:16:08.590Z,68.00
2018-01-10T11:18:36.925Z,70.60
2018-01-10T11:21:04.494Z,69.80
2018-01-10T11:23:32.070Z,71.00
2018-01-10T11:26:00.382Z,71.70
2018-01-10T11:28:28.101Z,71.70
2018-01-10T11:30:55.765Z,73.70
2018-01-10T11:33:23.293Z,74.50
2018-01-10T11:35:50.868Z,74.30
2018-01-10T11:38:18.431Z,74.90
2018-01-10T11:40:46.009Z,74.60
2018-01-10T11:43:13.667Z,74.70
2018-01-10T11:45:41.244Z,75.10
2018-01-10T11:48:08.774Z,73.50
2018-01-10T11:50:36.356Z,73.90
2018-01-10T11:53:03.931Z,72.50
2018-01-10T11:55:31.491Z,72.90
2018-01-10T11:57:59.811Z,74.00
2018-01-10T12:00:27.498Z,74.00
2018-01-10T12:02:55.092Z,71.90
2018-01-10T12:05:23.425Z,70.10
2018-01-10T12:07:50.990Z,70.10
2018-01-10T12:10:18.610Z,71.00
2018-01-10T12:12:46.482Z,69.50
2018-01-10T12:15:14.079Z,68.60
2018-01-10T12:17:41.622Z,68.80
2018-01-10T12:20:09.198Z,69.50
2018-01-10T12:22:36.930Z,69.50
2018-01-10T12:25:04.503Z,69.50
2018-01-10T12:27:32.115Z,69.50
2018-01-10T12:29:59.720Z,67.90
2018-01-10T12:32:28.195Z,67.70
2018-01-10T12:34:55.776Z,67.70
2018-01-10T12:37:23.352Z,67.70
2018-01-10T12:39:50.906Z,68.20
2018-01-10T12:42:18.486Z,67.70
2018-01-10T12:44:46.597Z,67.00
2018-01-10T12:47:15.021Z,65.80
2018-01-10T12:49:42.591Z,65.80
2018-01-10T12:52:10.200Z,66.00
2018-01-10T12:54:38.533Z,66.70
2018-01-10T12:57:06.165Z,66.10
2018-01-10T12:59:33.743Z,66.10
2018-01-10T13:02:01.485Z,66.10
2018-01-10T13:04:29.809Z,64.50
2018-01-10T13:06:57.386Z,64.50
2018-01-10T13:09:24.974Z,64.00
2018-01-10T13:11:52.525Z,64.40
2018-01-10T13:14:20.096Z,65.30
2018-01-10T13:16:48.527Z,63.30
2018-01-10T13:19:16.101Z,63.30
2018-01-10T13:21:43.692Z,62.50
2018-01-10T13:24:11.421Z,61.60
2018-01-10T13:26:39.011Z,61.90
2018-01-10T13:29:06.609Z,60.10
2018-01-10T13:31:34.945Z,60.00
2018-01-10T13:34:02.510Z,60.00
2018-01-10T13:36:30.100Z,58.70
2018-01-10T13:38:58.424Z,59.30
2018-01-10T13:41:26.006Z,59.30
2018-01-10T13:43:53.553Z,59.80
2018-01-10T13:46:21.145Z,60.60
2018-01-10T13:48:49.502Z,62.30
2018-01-10T13:51:17.072Z,62.20
2018-01-10T13:53:44.666Z,62.70
2018-01-10T13:56:13.127Z,64.00
2018-01-10T13:58:41.455Z,64.30
2018-01-10T14:01:09.157Z,64.30
2018-01-10T14:03:36.733Z,65.30
2018-01-10T14:06:04.285Z,65.30
2018-01-10T14:08:31.850Z,65.10
2018-01-10T14:10:59.441Z,65.30
2018-01-10T14:13:27.777Z,65.70
2018-01-10T14:15:56.109Z,65.70
2018-01-10T14:18:24.410Z,65.70
2018-01-10T14:20:51.997Z,65.70
2018-01-10T14:23:19.581Z,65.60
2018-01-10T14:25:47.726Z,65.60
2018-01-10T14:28:15.312Z,66.90
2018-01-10T14:30:42.916Z,66.30
2018-01-10T14:33:10.448Z,65.80
2018-01-10T14:35:38.815Z,65.00
2018-01-10T14:38:06.677Z,65.00
2018-01-10T14:40:34.214Z,66.10
2018-01-10T14:43:01.774Z,66.30
2018-01-10T14:45:29.334Z,65.90
2018-01-10T14:47:56.901Z,65.40
2018-01-10T14:50:24.527Z,65.10
2018-01-10T14:52:52.114Z,65.00
2018-01-10T14:55:19.695Z,65.10
2018-01-10T14:57:47.349Z,66.20
2018-01-10T15:00:14.906Z,66.60
2018-01-10T15:02:42.536Z,67.40
2018-01-10T15:05:10.169Z,69.30
2018-01-10T15:07:38.612Z,69.00
2018-01-10T15:10:06.168Z,68.90
2018-01-10T15:12:33.754Z,68.90
2018-01-10T15:15:01.309Z,69.50
2018-01-10T15:17:28.865Z,69.50
2018-01-10T15:19:56.437Z,70.20
2018-01-10T15:22:23.990Z,70.50
2018-01-10T15:24:51.566Z,70.70
2018-01-10T15:27:19.120Z,70.70
2018-01-10T15:29:46.724Z,70.30
2018-01-10T15:32:15.058Z,70.40
2018-01-10T15:34:42.700Z,70.40
2018-01-10T15:37:10.258Z,70.20
2018-01-10T15:39:37.826Z,70.10
2018-01-10T15:42:05.406Z,69.70
2018-01-10T15:44:32.965Z,69.60
2018-01-10T15:47:00.549Z,68.00
2018-01-10T15:49:28.110Z,67.80
2018-01-10T15:51:55.684Z,69.40
2018-01-10T15:54:24.166Z,67.80
2018-01-10T15:56:51.759Z,67.70
2018-01-10T15:59:19.331Z,67.80
2018-01-10T16:01:46.931Z,68.50
2018-01-10T16:04:14.673Z,68.70
2018-01-10T16:06:42.232Z,68.70
2018-01-10T16:09:09.986Z,68.50
2018-01-10T16:11:37.566Z,68.60
2018-01-10T16:14:05.141Z,69.10
2018-01-10T16:16:32.693Z,69.10
2018-01-10T16:19:00.272Z,69.00
2018-01-10T16:21:27.851Z,68.60
2018-01-10T16:23:56.182Z,68.30
2018-01-10T16:26:23.835Z,68.30
2018-01-10T16:28:52.302Z,68.70
2018-01-10T16:31:19.858Z,68.60
2018-01-10T16:33:47.502Z,67.90
2018-01-10T16:36:15.870Z,67.00
2018-01-10T16:38:44.226Z,66.60
2018-01-10T16:41:12.646Z,66.60
2018-01-10T16:43:40.217Z,68.50
2018-01-10T16:46:08.663Z,66.50
2018-01-10T16:48:36.221Z,66.40
2018-01-10T16:51:03.849Z,67.70
2018-01-10T16:53:31.545Z,67.90
2018-01-10T16:55:59.118Z,68.30
2018-01-10T16:58:26.728Z,68.40
2018-01-10T17:00:54.279Z,68.00
2018-01-10T17:03:22.641Z,67.70
2018-01-10T17:05:50.200Z,67.70
2018-01-10T17:08:17.766Z,67.20
2018-01-10T17:10:45.340Z,65.80
2018-01-10T17:13:13.708Z,65.60
2018-01-10T17:15:41.275Z,66.70
2018-01-10T17:18:09.602Z,67.40
2018-01-10T17:20:37.157Z,67.40
2018-01-10T17:23:04.750Z,67.50
2018-01-10T17:25:32.319Z,67.60
2018-01-10T17:27:59.904Z,67.30
2018-01-10T17:30:28.237Z,67.60
2018-01-10T17:32:55.805Z,67.60
2018-01-10T17:35:23.375Z,67.50
2018-01-10T17:37:50.971Z,68.10
2018-01-10T17:40:19.419Z,67.60
2018-01-10T17:42:47.009Z,67.50
2018-01-10T17:45:15.317Z,67.00
2018-01-10T17:47:42.991Z,67.00
2018-01-10T17:50:10.582Z,67.70
2018-01-10T17:52:38.139Z,67.70
2018-01-10T17:55:05.733Z,67.60
2018-01-10T17:57:34.194Z,68.20
2018-01-10T18:00:01.855Z,68.20
2018-01-10T18:02:29.482Z,68.20
2018-01-10T18:04:57.287Z,68.30
2018-01-10T18:07:24.913Z,68.30
2018-01-10T18:09:52.471Z,68.70
2018-01-10T18:12:20.080Z,68.80
2018-01-10T18:14:47.734Z,68.30
2018-01-10T18:17:15.510Z,68.40
2018-01-10T18:19:43.141Z,68.50
2018-01-10T18:22:10.773Z,68.50
2018-01-10T18:24:39.192Z,68.50
2018-01-10T18:27:06.774Z,68.50
2018-01-10T18:29:34.368Z,68.60
2018-01-10T18:32:02.681Z,68.20
2018-01-10T18:34:30.256Z,68.20
2018-01-10T18:36:57.830Z,68.10
2018-01-10T18:39:25.382Z,68.00
2018-01-10T18:41:54.835Z,68.10
2018-01-10T18:44:22.395Z,68.20
2018-01-10T18:46:50.721Z,67.90
2018-01-10T18:49:18.314Z,67.90
2018-01-10T18:51:45.919Z,68.60
2018-01-10T18:54:13.490Z,69.40
2018-01-10T18:56:41.172Z,71.20
2018-01-10T18:59:08.862Z,71.90
2018-01-10T19:01:36.435Z,71.90
2018-01-10T19:04:04.015Z,72.70
2018-01-10T19:06:32.348Z,73.80
2018-01-10T19:08:59.946Z,73.80
2018-01-10T19:11:27.507Z,74.50
2018-01-10T19:13:55.904Z,75.00
2018-01-10T19:16:24.246Z,75.60
2018-01-10T19:18:51.835Z,75.60
2018-01-10T19:21:19.398Z,75.90
2018-01-10T19:23:47.736Z,75.40
2018-01-10T19:26:15.316Z,75.30
2018-01-10T19:28:42.901Z,74.60
2018-01-10T19:31:10.516Z,75.10
2018-01-10T19:33:38.092Z,75.30
2018-01-10T19:36:05.896Z,75.40
2018-01-10T19:38:33.570Z,75.30
2018-01-10T19:41:01.209Z,74.80
2018-01-10T19:43:28.794Z,74.80
2018-01-10T19:45:57.181Z,75.30
2018-01-10T19:48:25.531Z,75.20
2018-01-10T19:50:53.876Z,75.40
2018-01-10T19:53:21.479Z,75.50
2018-01-10T19:55:49.036Z,75.40
2018-01-10T19:58:17.387Z,75.50
2018-01-10T20:00:44.937Z,75.40
2018-01-10T20:03:12.547Z,75.70
2018-01-10T20:05:40.142Z,76.10
2018-01-10T20:08:10.847Z,75.80
2018-01-10T20:10:38.585Z,76.10
2018-01-10T20:13:06.788Z,76.60
2018-01-10T20:15:34.491Z,77.30
2018-01-10T20:18:02.110Z,77.40
2018-01-10T20:20:29.714Z,77.60
2018-01-10T20:22:57.293Z,78.00
2018-01-10T20:25:26.686Z,77.80
2018-01-10T20:27:55.253Z,77.80
2018-01-10T20:30:22.887Z,78.30
2018-01-10T20:32:50.458Z,77.80
2018-01-10T20:35:18.047Z,78.30
2018-01-10T20:37:45.620Z,78.60
2018-01-10T20:40:13.241Z,78.90
2018-01-10T20:42:40.860Z,78.90
2018-01-10T20:45:08.446Z,78.90
2018-01-10T20:47:36.035Z,79.80
2018-01-10T20:50:03.633Z,79.30
2018-01-10T20:52:31.260Z,80.00
2018-01-10T20:54:58.838Z,79.70
2018-01-10T20:57:27.175Z,80.00
2018-01-10T20:59:54.741Z,79.90
2018-01-10T21:02:22.582Z,80.10
2018-01-10T21:04:50.181Z,80.50
2018-01-10T21:07:17.758Z,80.90
2018-01-10T21:09:45.364Z,80.80
2018-01-10T21:12:12.916Z,80.90
2018-01-10T21:14:40.512Z,80.60
2018-01-10T21:17:08.216Z,80.70
2018-01-10T21:19:35.799Z,80.90
2018-01-10T21:22:03.403Z,81.10
2018-01-10T21:24:31.004Z,81.20
2018-01-10T21:26:58.561Z,80.70
2018-01-10T21:29:26.133Z,81.20
2018-01-10T21:31:54.489Z,81.30
2018-01-10T21:34:22.064Z,81.30
2018-01-10T21:36:49.674Z,81.10
2018-01-10T21:39:17.287Z,82.40
2018-01-10T21:41:44.891Z,81.40
2018-01-10T21:44:12.469Z,81.70
2018-01-10T21:46:40.026Z,81.90
2018-01-10T21:49:07.609Z,81.90
2018-01-10T21:51:35.192Z,82.10
2018-01-10T21:54:02.766Z,82.40
2018-01-10T21:56:31.213Z,82.20
2018-01-10T21:58:58.808Z,82.10
2018-01-10T22:01:26.474Z,82.40
2018-01-10T22:03:54.092Z,82.10
2018-01-10T22:06:21.698Z,82.90
2018-01-10T22:08:49.428Z,82.70
2018-01-10T22:11:16.992Z,83.10
2018-01-10T22:13:44.559Z,83.50
2018-01-10T22:16:12.130Z,83.30
2018-01-10T22:18:39.697Z,83.50
2018-01-10T22:21:07.292Z,83.70
2018-01-10T22:23:35.652Z,83.50
2018-01-10T22:26:03.234Z,83.40
2018-01-10T22:28:31.585Z,83.50
2018-01-10T22:30:59.157Z,83.50
2018-01-10T22:33:27.507Z,83.30
2018-01-10T22:35:55.142Z,83.30
2018-01-10T22:38:22.720Z,83.40
2018-01-10T22:40:50.280Z,83.80
2018-01-10T22:43:17.868Z,83.60
2018-01-10T22:45:45.432Z,83.40
2018-01-10T22:48:12.995Z,83.40
2018-01-10T22:50:40.581Z,83.80
2018-01-10T22:53:08.918Z,84.80
2018-01-10T22:55:36.537Z,84.40
2018-01-10T22:58:04.877Z,84.60
2018-01-10T23:00:32.460Z,84.60
2018-01-10T23:03:00.789Z,84.30
2018-01-10T23:05:28.350Z,84.20
2018-01-10T23:07:55.919Z,84.00
2018-01-10T23:10:23.486Z,84.00
2018-01-10T23:12:52.063Z,83.70
2018-01-10T23:15:19.672Z,84.10
2018-01-10T23:17:47.255Z,84.10
2018-01-10T23:20:14.814Z,84.00
2018-01-10T23:22:43.173Z,83.80
2018-01-10T23:25:10.757Z,83.80
2018-01-10T23:27:39.102Z,83.90
2018-01-10T23:30:06.659Z,83.90
2018-01-10T23:32:34.274Z,83.90
2018-01-10T23:35:02.482Z,83.70
2018-01-10T23:37:30.092Z,84.00
2018-01-10T23:39:59.390Z,84.70
2018-01-10T23:42:26.953Z,84.10
2018-01-10T23:44:54.523Z,83.90
2018-01-10T23:47:22.852Z,84.70
2018-01-10T23:49:50.401Z,84.60
2018-01-10T23:52:18.005Z,85.00
2018-01-10T23:54:45.572Z,85.00
2018-01-10T23:57:13.147Z,84.90
2018-01-10T23:59:40.714Z,84.90
